sensor_id;sensor_type;location;lat;lon;timestamp;P1;durP1;ratioP1;P2;durP2;ratioP2
18738;SDS011;9498;51.862;19.460;2023-02-18T00:01:07;10.23;;;3.00;;
18738;SDS011;9498;51.862;19.460;2023-02-18T00:03:35;8.30;;;2.80;;
18738;SDS011;9498;51.862;19.460;2023-02-18T00:06:10;8.07;;;3.13;;
18738;SDS011;9498;51.862;19.460;2023-02-18T00:08:37;11.87;;;2.70;;
18738;SDS011;9498;51.862;19.460;2023-02-18T00:11:05;4.23;;;1.80;;
18738;SDS011;9498;51.862;19.460;2023-02-18T00:13:32;6.43;;;1.70;;
18738;SDS011;9498;51.862;19.460;2023-02-18T00:16:00;4.17;;;1.60;;
18738;SDS011;9498;51.862;19.460;2023-02-18T00:18:27;7.57;;;2.20;;
18738;SDS011;9498;51.862;19.460;2023-02-18T00:20:54;5.50;;;1.90;;
18738;SDS011;9498;51.862;19.460;2023-02-18T00:23:23;8.23;;;1.80;;
18738;SDS011;9498;51.862;19.460;2023-02-18T00:25:57;6.00;;;1.70;;
18738;SDS011;9498;51.862;19.460;2023-02-18T00:28:24;8.13;;;1.73;;
18738;SDS011;9498;51.862;19.460;2023-02-18T00:30:52;7.93;;;1.80;;
18738;SDS011;9498;51.862;19.460;2023-02-18T00:33:19;11.97;;;2.03;;
18738;SDS011;9498;51.862;19.460;2023-02-18T00:35:46;9.20;;;2.07;;
18738;SDS011;9498;51.862;19.460;2023-02-18T00:38:14;11.20;;;2.13;;
18738;SDS011;9498;51.862;19.460;2023-02-18T00:40:43;10.73;;;1.83;;
18738;SDS011;9498;51.862;19.460;2023-02-18T00:43:10;12.57;;;1.50;;
18738;SDS011;9498;51.862;19.460;2023-02-18T00:45:37;12.83;;;1.90;;
18738;SDS011;9498;51.862;19.460;2023-02-18T00:48:04;12.10;;;2.13;;
18738;SDS011;9498;51.862;19.460;2023-02-18T00:50:31;15.57;;;2.50;;
18738;SDS011;9498;51.862;19.460;2023-02-18T00:52:59;5.77;;;1.63;;
18738;SDS011;9498;51.862;19.460;2023-02-18T00:55:26;12.10;;;1.90;;
18738;SDS011;9498;51.862;19.460;2023-02-18T00:57:54;7.83;;;2.00;;
18738;SDS011;9498;51.862;19.460;2023-02-18T01:00:22;6.60;;;2.10;;
18738;SDS011;9498;51.862;19.460;2023-02-18T01:02:49;11.93;;;1.60;;
18738;SDS011;9498;51.862;19.460;2023-02-18T01:05:18;8.90;;;1.63;;
18738;SDS011;9498;51.862;19.460;2023-02-18T01:07:45;11.07;;;1.90;;
18738;SDS011;9498;51.862;19.460;2023-02-18T01:10:12;13.98;;;2.33;;
18738;SDS011;9498;51.862;19.460;2023-02-18T01:12:39;8.83;;;1.77;;
18738;SDS011;9498;51.862;19.460;2023-02-18T01:15:10;13.07;;;2.33;;
18738;SDS011;9498;51.862;19.460;2023-02-18T01:17:37;13.87;;;1.93;;
18738;SDS011;9498;51.862;19.460;2023-02-18T01:20:05;9.87;;;1.80;;
18738;SDS011;9498;51.862;19.460;2023-02-18T01:22:33;11.67;;;2.10;;
18738;SDS011;9498;51.862;19.460;2023-02-18T01:25:00;13.47;;;2.03;;
18738;SDS011;9498;51.862;19.460;2023-02-18T01:27:27;9.63;;;2.50;;
18738;SDS011;9498;51.862;19.460;2023-02-18T01:29:54;12.73;;;2.10;;
18738;SDS011;9498;51.862;19.460;2023-02-18T01:32:23;10.17;;;1.67;;
18738;SDS011;9498;51.862;19.460;2023-02-18T01:34:50;16.80;;;2.97;;
18738;SDS011;9498;51.862;19.460;2023-02-18T01:37:17;8.83;;;2.13;;
18738;SDS011;9498;51.862;19.460;2023-02-18T01:39:45;9.43;;;2.20;;
18738;SDS011;9498;51.862;19.460;2023-02-18T01:42:16;11.87;;;2.80;;
18738;SDS011;9498;51.862;19.460;2023-02-18T01:44:45;11.87;;;2.10;;
18738;SDS011;9498;51.862;19.460;2023-02-18T01:47:12;14.27;;;2.30;;
18738;SDS011;9498;51.862;19.460;2023-02-18T01:49:41;9.60;;;1.50;;
18738;SDS011;9498;51.862;19.460;2023-02-18T01:52:11;10.02;;;2.03;;
18738;SDS011;9498;51.862;19.460;2023-02-18T01:54:40;11.83;;;2.07;;
18738;SDS011;9498;51.862;19.460;2023-02-18T01:57:08;13.53;;;2.33;;
18738;SDS011;9498;51.862;19.460;2023-02-18T01:59:36;11.70;;;2.17;;
18738;SDS011;9498;51.862;19.460;2023-02-18T02:02:05;8.73;;;1.97;;
18738;SDS011;9498;51.862;19.460;2023-02-18T02:04:33;16.37;;;2.20;;
18738;SDS011;9498;51.862;19.460;2023-02-18T02:07:01;11.03;;;2.23;;
18738;SDS011;9498;51.862;19.460;2023-02-18T02:09:29;12.43;;;2.13;;
18738;SDS011;9498;51.862;19.460;2023-02-18T02:12:11;13.97;;;2.23;;
18738;SDS011;9498;51.862;19.460;2023-02-18T02:14:46;13.03;;;2.00;;
18738;SDS011;9498;51.862;19.460;2023-02-18T02:17:16;8.53;;;1.90;;
18738;SDS011;9498;51.862;19.460;2023-02-18T02:20:04;10.52;;;2.53;;
18738;SDS011;9498;51.862;19.460;2023-02-18T02:25:43;10.37;;;2.23;;
18738;SDS011;9498;51.862;19.460;2023-02-18T02:31:03;14.57;;;2.13;;
18738;SDS011;9498;51.862;19.460;2023-02-18T02:33:49;9.07;;;2.27;;
18738;SDS011;9498;51.862;19.460;2023-02-18T02:36:22;6.30;;;1.57;;
18738;SDS011;9498;51.862;19.460;2023-02-18T02:38:54;20.53;;;2.90;;
18738;SDS011;9498;51.862;19.460;2023-02-18T02:41:26;14.00;;;2.20;;
18738;SDS011;9498;51.862;19.460;2023-02-18T02:43:58;9.40;;;1.90;;
18738;SDS011;9498;51.862;19.460;2023-02-18T02:46:29;8.70;;;2.10;;
18738;SDS011;9498;51.862;19.460;2023-02-18T02:48:58;6.40;;;1.47;;
18738;SDS011;9498;51.862;19.460;2023-02-18T02:51:31;19.10;;;2.45;;
18738;SDS011;9498;51.862;19.460;2023-02-18T02:54:08;13.20;;;2.13;;
18738;SDS011;9498;51.862;19.460;2023-02-18T02:56:35;9.73;;;1.80;;
18738;SDS011;9498;51.862;19.460;2023-02-18T02:59:03;11.87;;;1.80;;
18738;SDS011;9498;51.862;19.460;2023-02-18T03:01:34;12.60;;;2.10;;
18738;SDS011;9498;51.862;19.460;2023-02-18T03:04:22;14.40;;;2.13;;
18738;SDS011;9498;51.862;19.460;2023-02-18T03:10:04;8.57;;;1.97;;
18738;SDS011;9498;51.862;19.460;2023-02-18T03:12:34;11.30;;;2.10;;
18738;SDS011;9498;51.862;19.460;2023-02-18T03:15:03;14.30;;;2.37;;
18738;SDS011;9498;51.862;19.460;2023-02-18T03:17:31;12.90;;;2.30;;
18738;SDS011;9498;51.862;19.460;2023-02-18T03:20:03;11.33;;;2.60;;
18738;SDS011;9498;51.862;19.460;2023-02-18T03:22:32;8.73;;;1.80;;
18738;SDS011;9498;51.862;19.460;2023-02-18T03:25:04;9.18;;;2.03;;
18738;SDS011;9498;51.862;19.460;2023-02-18T03:27:32;6.30;;;2.00;;
18738;SDS011;9498;51.862;19.460;2023-02-18T03:30:02;6.83;;;1.60;;
18738;SDS011;9498;51.862;19.460;2023-02-18T03:32:30;12.63;;;2.37;;
18738;SDS011;9498;51.862;19.460;2023-02-18T03:34:59;9.73;;;2.10;;
18738;SDS011;9498;51.862;19.460;2023-02-18T03:37:28;10.67;;;2.03;;
18738;SDS011;9498;51.862;19.460;2023-02-18T03:39:56;8.23;;;2.00;;
18738;SDS011;9498;51.862;19.460;2023-02-18T03:42:26;11.50;;;1.90;;
18738;SDS011;9498;51.862;19.460;2023-02-18T03:44:54;10.77;;;2.13;;
18738;SDS011;9498;51.862;19.460;2023-02-18T03:47:21;7.07;;;2.00;;
18738;SDS011;9498;51.862;19.460;2023-02-18T03:49:49;13.03;;;2.03;;
18738;SDS011;9498;51.862;19.460;2023-02-18T03:52:16;12.30;;;2.47;;
18738;SDS011;9498;51.862;19.460;2023-02-18T03:54:43;8.83;;;2.20;;
18738;SDS011;9498;51.862;19.460;2023-02-18T03:57:10;14.93;;;2.97;;
18738;SDS011;9498;51.862;19.460;2023-02-18T03:59:39;14.55;;;3.17;;
18738;SDS011;9498;51.862;19.460;2023-02-18T04:02:06;10.77;;;2.30;;
18738;SDS011;9498;51.862;19.460;2023-02-18T04:04:34;18.67;;;2.33;;
18738;SDS011;9498;51.862;19.460;2023-02-18T04:07:01;11.63;;;1.80;;
18738;SDS011;9498;51.862;19.460;2023-02-18T04:09:28;8.60;;;2.10;;
18738;SDS011;9498;51.862;19.460;2023-02-18T04:11:55;13.87;;;2.83;;
18738;SDS011;9498;51.862;19.460;2023-02-18T04:14:22;12.37;;;2.10;;
18738;SDS011;9498;51.862;19.460;2023-02-18T04:16:51;12.80;;;2.77;;
18738;SDS011;9498;51.862;19.460;2023-02-18T04:19:18;13.97;;;2.07;;
18738;SDS011;9498;51.862;19.460;2023-02-18T04:21:45;13.37;;;2.73;;
18738;SDS011;9498;51.862;19.460;2023-02-18T04:24:13;18.53;;;2.17;;
18738;SDS011;9498;51.862;19.460;2023-02-18T04:26:40;11.43;;;2.10;;
18738;SDS011;9498;51.862;19.460;2023-02-18T04:29:07;14.17;;;2.43;;
18738;SDS011;9498;51.862;19.460;2023-02-18T04:31:34;8.27;;;2.05;;
18738;SDS011;9498;51.862;19.460;2023-02-18T04:34:03;8.77;;;1.90;;
18738;SDS011;9498;51.862;19.460;2023-02-18T04:36:30;20.90;;;2.77;;
18738;SDS011;9498;51.862;19.460;2023-02-18T04:38:57;12.37;;;2.17;;
18738;SDS011;9498;51.862;19.460;2023-02-18T04:41:25;11.03;;;2.10;;
18738;SDS011;9498;51.862;19.460;2023-02-18T04:43:52;8.27;;;2.40;;
18738;SDS011;9498;51.862;19.460;2023-02-18T04:46:19;7.37;;;2.00;;
18738;SDS011;9498;51.862;19.460;2023-02-18T04:48:46;6.03;;;2.10;;
18738;SDS011;9498;51.862;19.460;2023-02-18T04:51:15;7.27;;;2.20;;
18738;SDS011;9498;51.862;19.460;2023-02-18T04:53:42;12.83;;;2.10;;
18738;SDS011;9498;51.862;19.460;2023-02-18T04:56:10;14.30;;;2.10;;
18738;SDS011;9498;51.862;19.460;2023-02-18T04:58:37;17.33;;;2.60;;
18738;SDS011;9498;51.862;19.460;2023-02-18T05:01:04;14.70;;;2.90;;
18738;SDS011;9498;51.862;19.460;2023-02-18T05:03:32;12.53;;;2.47;;
18738;SDS011;9498;51.862;19.460;2023-02-18T05:05:59;8.30;;;2.47;;
18738;SDS011;9498;51.862;19.460;2023-02-18T05:08:28;9.90;;;2.73;;
18738;SDS011;9498;51.862;19.460;2023-02-18T05:10:56;12.23;;;2.33;;
18738;SDS011;9498;51.862;19.460;2023-02-18T05:13:23;19.83;;;3.27;;
18738;SDS011;9498;51.862;19.460;2023-02-18T05:15:51;9.37;;;2.37;;
18738;SDS011;9498;51.862;19.460;2023-02-18T05:18:18;14.87;;;3.33;;
18738;SDS011;9498;51.862;19.460;2023-02-18T05:20:45;8.80;;;2.10;;
18738;SDS011;9498;51.862;19.460;2023-02-18T05:23:12;15.00;;;2.30;;
18738;SDS011;9498;51.862;19.460;2023-02-18T05:25:41;10.03;;;2.40;;
18738;SDS011;9498;51.862;19.460;2023-02-18T05:28:08;14.20;;;2.30;;
18738;SDS011;9498;51.862;19.460;2023-02-18T05:30:35;11.50;;;2.93;;
18738;SDS011;9498;51.862;19.460;2023-02-18T05:33:03;9.87;;;2.40;;
18738;SDS011;9498;51.862;19.460;2023-02-18T05:35:30;11.50;;;2.30;;
18738;SDS011;9498;51.862;19.460;2023-02-18T05:37:57;14.27;;;2.87;;
18738;SDS011;9498;51.862;19.460;2023-02-18T05:40:24;17.17;;;2.90;;
18738;SDS011;9498;51.862;19.460;2023-02-18T05:42:53;14.47;;;2.47;;
18738;SDS011;9498;51.862;19.460;2023-02-18T05:45:20;11.67;;;2.53;;
18738;SDS011;9498;51.862;19.460;2023-02-18T05:47:47;9.30;;;2.37;;
18738;SDS011;9498;51.862;19.460;2023-02-18T05:50:15;9.60;;;2.37;;
18738;SDS011;9498;51.862;19.460;2023-02-18T05:52:42;9.80;;;2.47;;
18738;SDS011;9498;51.862;19.460;2023-02-18T05:55:09;15.60;;;3.13;;
18738;SDS011;9498;51.862;19.460;2023-02-18T05:57:36;15.60;;;2.77;;
18738;SDS011;9498;51.862;19.460;2023-02-18T06:00:06;11.13;;;2.80;;
18738;SDS011;9498;51.862;19.460;2023-02-18T06:02:34;13.37;;;2.60;;
18738;SDS011;9498;51.862;19.460;2023-02-18T06:05:01;12.00;;;2.50;;
18738;SDS011;9498;51.862;19.460;2023-02-18T06:07:28;10.23;;;2.43;;
18738;SDS011;9498;51.862;19.460;2023-02-18T06:09:56;14.57;;;2.77;;
18738;SDS011;9498;51.862;19.460;2023-02-18T06:12:23;27.90;;;2.93;;
18738;SDS011;9498;51.862;19.460;2023-02-18T06:14:50;15.20;;;3.10;;
18738;SDS011;9498;51.862;19.460;2023-02-18T06:17:19;11.13;;;2.70;;
18738;SDS011;9498;51.862;19.460;2023-02-18T06:19:46;14.10;;;2.90;;
18738;SDS011;9498;51.862;19.460;2023-02-18T06:22:14;15.23;;;2.97;;
18738;SDS011;9498;51.862;19.460;2023-02-18T06:24:41;13.50;;;2.87;;
18738;SDS011;9498;51.862;19.460;2023-02-18T06:27:08;14.47;;;2.53;;
18738;SDS011;9498;51.862;19.460;2023-02-18T06:29:36;10.27;;;2.80;;
18738;SDS011;9498;51.862;19.460;2023-02-18T06:32:03;13.73;;;2.80;;
18738;SDS011;9498;51.862;19.460;2023-02-18T06:34:32;12.90;;;3.07;;
18738;SDS011;9498;51.862;19.460;2023-02-18T06:36:59;11.23;;;2.47;;
18738;SDS011;9498;51.862;19.460;2023-02-18T06:39:26;15.37;;;2.93;;
18738;SDS011;9498;51.862;19.460;2023-02-18T06:41:53;13.57;;;2.30;;
18738;SDS011;9498;51.862;19.460;2023-02-18T06:44:20;9.93;;;2.73;;
18738;SDS011;9498;51.862;19.460;2023-02-18T06:46:48;20.23;;;3.20;;
18738;SDS011;9498;51.862;19.460;2023-02-18T06:49:15;11.60;;;2.57;;
18738;SDS011;9498;51.862;19.460;2023-02-18T06:51:43;11.67;;;3.50;;
18738;SDS011;9498;51.862;19.460;2023-02-18T06:54:11;23.37;;;5.17;;
18738;SDS011;9498;51.862;19.460;2023-02-18T06:56:38;19.93;;;5.40;;
18738;SDS011;9498;51.862;19.460;2023-02-18T06:59:05;19.63;;;4.10;;
18738;SDS011;9498;51.862;19.460;2023-02-18T07:01:32;15.27;;;3.07;;
18738;SDS011;9498;51.862;19.460;2023-02-18T07:04:00;9.17;;;2.77;;
18738;SDS011;9498;51.862;19.460;2023-02-18T07:06:27;11.77;;;2.53;;
18738;SDS011;9498;51.862;19.460;2023-02-18T07:08:55;10.03;;;2.53;;
18738;SDS011;9498;51.862;19.460;2023-02-18T07:11:23;18.37;;;2.67;;
18738;SDS011;9498;51.862;19.460;2023-02-18T07:13:50;13.63;;;3.23;;
18738;SDS011;9498;51.862;19.460;2023-02-18T07:16:17;11.63;;;3.27;;
18738;SDS011;9498;51.862;19.460;2023-02-18T07:18:45;17.93;;;2.97;;
18738;SDS011;9498;51.862;19.460;2023-02-18T07:21:12;12.83;;;2.67;;
18738;SDS011;9498;51.862;19.460;2023-02-18T07:23:39;10.20;;;2.30;;
18738;SDS011;9498;51.862;19.460;2023-02-18T07:26:09;18.03;;;2.80;;
18738;SDS011;9498;51.862;19.460;2023-02-18T07:28:37;13.57;;;2.87;;
18738;SDS011;9498;51.862;19.460;2023-02-18T07:31:05;16.77;;;3.67;;
18738;SDS011;9498;51.862;19.460;2023-02-18T07:33:33;14.07;;;2.50;;
18738;SDS011;9498;51.862;19.460;2023-02-18T07:36:00;18.50;;;3.33;;
18738;SDS011;9498;51.862;19.460;2023-02-18T07:38:28;18.10;;;3.53;;
18738;SDS011;9498;51.862;19.460;2023-02-18T07:40:55;15.33;;;3.43;;
18738;SDS011;9498;51.862;19.460;2023-02-18T07:43:24;11.60;;;3.07;;
18738;SDS011;9498;51.862;19.460;2023-02-18T07:45:51;12.63;;;3.57;;
18738;SDS011;9498;51.862;19.460;2023-02-18T07:48:19;15.03;;;3.87;;
18738;SDS011;9498;51.862;19.460;2023-02-18T07:50:46;9.90;;;2.90;;
18738;SDS011;9498;51.862;19.460;2023-02-18T07:53:14;13.00;;;3.27;;
18738;SDS011;9498;51.862;19.460;2023-02-18T07:55:41;20.13;;;3.47;;
18738;SDS011;9498;51.862;19.460;2023-02-18T07:58:15;13.60;;;3.10;;
18738;SDS011;9498;51.862;19.460;2023-02-18T08:00:43;19.37;;;3.90;;
18738;SDS011;9498;51.862;19.460;2023-02-18T08:03:11;20.57;;;3.37;;
18738;SDS011;9498;51.862;19.460;2023-02-18T08:05:39;15.90;;;3.53;;
18738;SDS011;9498;51.862;19.460;2023-02-18T08:08:06;10.40;;;3.03;;
18738;SDS011;9498;51.862;19.460;2023-02-18T08:10:33;14.90;;;3.10;;
18738;SDS011;9498;51.862;19.460;2023-02-18T08:13:01;19.97;;;3.30;;
18738;SDS011;9498;51.862;19.460;2023-02-18T08:15:28;14.60;;;3.10;;
18738;SDS011;9498;51.862;19.460;2023-02-18T08:17:56;19.92;;;3.42;;
18738;SDS011;9498;51.862;19.460;2023-02-18T08:20:24;15.37;;;3.50;;
18738;SDS011;9498;51.862;19.460;2023-02-18T08:22:51;14.80;;;3.30;;
18738;SDS011;9498;51.862;19.460;2023-02-18T08:25:19;19.60;;;3.20;;
18738;SDS011;9498;51.862;19.460;2023-02-18T08:27:46;11.07;;;2.80;;
18738;SDS011;9498;51.862;19.460;2023-02-18T08:30:13;18.90;;;3.80;;
18738;SDS011;9498;51.862;19.460;2023-02-18T08:32:40;18.73;;;3.93;;
18738;SDS011;9498;51.862;19.460;2023-02-18T08:35:10;14.97;;;3.70;;
18738;SDS011;9498;51.862;19.460;2023-02-18T08:37:37;17.87;;;3.73;;
18738;SDS011;9498;51.862;19.460;2023-02-18T08:40:05;18.90;;;3.70;;
18738;SDS011;9498;51.862;19.460;2023-02-18T08:42:32;14.73;;;3.50;;
18738;SDS011;9498;51.862;19.460;2023-02-18T08:44:59;15.43;;;3.57;;
18738;SDS011;9498;51.862;19.460;2023-02-18T08:47:26;15.23;;;3.10;;
18738;SDS011;9498;51.862;19.460;2023-02-18T08:49:54;16.53;;;3.33;;
18738;SDS011;9498;51.862;19.460;2023-02-18T08:52:22;15.20;;;3.67;;
18738;SDS011;9498;51.862;19.460;2023-02-18T08:54:49;20.40;;;3.77;;
18738;SDS011;9498;51.862;19.460;2023-02-18T08:57:17;20.20;;;3.53;;
18738;SDS011;9498;51.862;19.460;2023-02-18T08:59:44;18.77;;;3.37;;
18738;SDS011;9498;51.862;19.460;2023-02-18T09:02:12;14.37;;;3.20;;
18738;SDS011;9498;51.862;19.460;2023-02-18T09:04:39;9.37;;;3.03;;
18738;SDS011;9498;51.862;19.460;2023-02-18T09:07:07;13.13;;;3.27;;
18738;SDS011;9498;51.862;19.460;2023-02-18T09:09:35;16.10;;;2.93;;
18738;SDS011;9498;51.862;19.460;2023-02-18T09:12:03;18.03;;;3.73;;
18738;SDS011;9498;51.862;19.460;2023-02-18T09:14:30;11.70;;;3.00;;
18738;SDS011;9498;51.862;19.460;2023-02-18T09:16:57;24.50;;;4.37;;
18738;SDS011;9498;51.862;19.460;2023-02-18T09:19:25;14.13;;;3.10;;
18738;SDS011;9498;51.862;19.460;2023-02-18T09:21:52;12.97;;;3.27;;
18738;SDS011;9498;51.862;19.460;2023-02-18T09:24:21;17.67;;;3.80;;
18738;SDS011;9498;51.862;19.460;2023-02-18T09:26:51;13.57;;;4.50;;
18738;SDS011;9498;51.862;19.460;2023-02-18T09:29:19;16.30;;;3.47;;
18738;SDS011;9498;51.862;19.460;2023-02-18T09:31:46;16.20;;;4.57;;
18738;SDS011;9498;51.862;19.460;2023-02-18T09:34:13;22.07;;;4.50;;
18738;SDS011;9498;51.862;19.460;2023-02-18T09:36:41;18.80;;;3.40;;
18738;SDS011;9498;51.862;19.460;2023-02-18T09:39:08;9.40;;;2.87;;
18738;SDS011;9498;51.862;19.460;2023-02-18T09:41:37;14.50;;;3.27;;
18738;SDS011;9498;51.862;19.460;2023-02-18T09:44:08;14.70;;;3.23;;
18738;SDS011;9498;51.862;19.460;2023-02-18T09:46:39;20.77;;;3.37;;
18738;SDS011;9498;51.862;19.460;2023-02-18T09:49:07;12.47;;;3.63;;
18738;SDS011;9498;51.862;19.460;2023-02-18T09:51:39;17.93;;;3.00;;
18738;SDS011;9498;51.862;19.460;2023-02-18T09:54:07;22.30;;;4.07;;
18738;SDS011;9498;51.862;19.460;2023-02-18T09:56:35;15.40;;;3.27;;
18738;SDS011;9498;51.862;19.460;2023-02-18T09:59:03;16.43;;;2.70;;
18738;SDS011;9498;51.862;19.460;2023-02-18T10:01:35;13.13;;;3.37;;
18738;SDS011;9498;51.862;19.460;2023-02-18T10:04:03;15.60;;;2.70;;
18738;SDS011;9498;51.862;19.460;2023-02-18T10:06:33;19.73;;;3.47;;
18738;SDS011;9498;51.862;19.460;2023-02-18T10:09:01;15.17;;;3.77;;
18738;SDS011;9498;51.862;19.460;2023-02-18T10:11:30;18.43;;;3.40;;
18738;SDS011;9498;51.862;19.460;2023-02-18T10:13:58;16.77;;;3.20;;
18738;SDS011;9498;51.862;19.460;2023-02-18T10:16:26;15.90;;;3.60;;
18738;SDS011;9498;51.862;19.460;2023-02-18T10:18:56;16.83;;;3.40;;
18738;SDS011;9498;51.862;19.460;2023-02-18T10:21:24;14.40;;;3.53;;
18738;SDS011;9498;51.862;19.460;2023-02-18T10:23:53;13.90;;;3.70;;
18738;SDS011;9498;51.862;19.460;2023-02-18T10:26:23;13.90;;;2.97;;
18738;SDS011;9498;51.862;19.460;2023-02-18T10:28:50;17.33;;;4.20;;
18738;SDS011;9498;51.862;19.460;2023-02-18T10:31:19;13.77;;;3.57;;
18738;SDS011;9498;51.862;19.460;2023-02-18T10:33:49;14.77;;;3.50;;
18738;SDS011;9498;51.862;19.460;2023-02-18T10:36:23;19.53;;;4.93;;
18738;SDS011;9498;51.862;19.460;2023-02-18T10:38:56;18.73;;;3.40;;
18738;SDS011;9498;51.862;19.460;2023-02-18T10:41:29;19.00;;;3.47;;
18738;SDS011;9498;51.862;19.460;2023-02-18T10:43:59;11.97;;;3.10;;
18738;SDS011;9498;51.862;19.460;2023-02-18T10:46:31;15.67;;;3.67;;
18738;SDS011;9498;51.862;19.460;2023-02-18T10:49:07;14.73;;;3.57;;
18738;SDS011;9498;51.862;19.460;2023-02-18T10:51:38;18.13;;;3.70;;
18738;SDS011;9498;51.862;19.460;2023-02-18T10:54:06;13.10;;;3.43;;
18738;SDS011;9498;51.862;19.460;2023-02-18T10:56:34;14.77;;;3.47;;
18738;SDS011;9498;51.862;19.460;2023-02-18T10:59:05;11.47;;;3.00;;
18738;SDS011;9498;51.862;19.460;2023-02-18T11:01:35;13.40;;;3.20;;
18738;SDS011;9498;51.862;19.460;2023-02-18T11:04:04;13.70;;;3.40;;
18738;SDS011;9498;51.862;19.460;2023-02-18T11:06:33;20.70;;;3.53;;
18738;SDS011;9498;51.862;19.460;2023-02-18T11:09:05;12.40;;;3.80;;
18738;SDS011;9498;51.862;19.460;2023-02-18T11:11:35;15.47;;;3.23;;
18738;SDS011;9498;51.862;19.460;2023-02-18T11:14:04;17.67;;;3.63;;
18738;SDS011;9498;51.862;19.460;2023-02-18T11:16:35;7.83;;;2.60;;
18738;SDS011;9498;51.862;19.460;2023-02-18T11:19:03;14.80;;;2.97;;
18738;SDS011;9498;51.862;19.460;2023-02-18T11:21:31;13.23;;;3.70;;
18738;SDS011;9498;51.862;19.460;2023-02-18T11:24:07;15.37;;;3.83;;
18738;SDS011;9498;51.862;19.460;2023-02-18T11:26:35;15.93;;;3.40;;
18738;SDS011;9498;51.862;19.460;2023-02-18T11:29:05;16.93;;;4.20;;
18738;SDS011;9498;51.862;19.460;2023-02-18T11:31:40;11.70;;;3.10;;
18738;SDS011;9498;51.862;19.460;2023-02-18T11:34:12;13.20;;;2.87;;
18738;SDS011;9498;51.862;19.460;2023-02-18T11:36:40;11.70;;;3.30;;
18738;SDS011;9498;51.862;19.460;2023-02-18T11:39:14;9.77;;;2.77;;
18738;SDS011;9498;51.862;19.460;2023-02-18T11:41:44;15.20;;;3.20;;
18738;SDS011;9498;51.862;19.460;2023-02-18T11:44:17;9.60;;;2.77;;
18738;SDS011;9498;51.862;19.460;2023-02-18T11:46:54;15.07;;;3.17;;
18738;SDS011;9498;51.862;19.460;2023-02-18T11:49:22;16.13;;;4.10;;
18738;SDS011;9498;51.862;19.460;2023-02-18T11:51:49;20.83;;;4.87;;
18738;SDS011;9498;51.862;19.460;2023-02-18T11:54:23;16.77;;;3.97;;
18738;SDS011;9498;51.862;19.460;2023-02-18T11:56:54;15.57;;;4.03;;
18738;SDS011;9498;51.862;19.460;2023-02-18T11:59:21;12.47;;;3.13;;
18738;SDS011;9498;51.862;19.460;2023-02-18T12:01:49;10.90;;;3.27;;
18738;SDS011;9498;51.862;19.460;2023-02-18T12:04:17;10.20;;;2.33;;
18738;SDS011;9498;51.862;19.460;2023-02-18T12:06:47;11.60;;;3.10;;
18738;SDS011;9498;51.862;19.460;2023-02-18T12:09:18;10.70;;;2.80;;
18738;SDS011;9498;51.862;19.460;2023-02-18T12:11:48;10.23;;;2.50;;
18738;SDS011;9498;51.862;19.460;2023-02-18T12:14:17;10.97;;;2.70;;
18738;SDS011;9498;51.862;19.460;2023-02-18T12:16:51;13.57;;;3.47;;
18738;SDS011;9498;51.862;19.460;2023-02-18T12:19:32;12.97;;;2.80;;
18738;SDS011;9498;51.862;19.460;2023-02-18T12:22:04;10.97;;;2.63;;
18738;SDS011;9498;51.862;19.460;2023-02-18T12:24:35;10.93;;;3.20;;
18738;SDS011;9498;51.862;19.460;2023-02-18T12:27:08;12.20;;;2.80;;
18738;SDS011;9498;51.862;19.460;2023-02-18T12:29:45;12.27;;;3.33;;
18738;SDS011;9498;51.862;19.460;2023-02-18T12:32:18;9.03;;;2.77;;
18738;SDS011;9498;51.862;19.460;2023-02-18T12:34:53;6.73;;;2.77;;
18738;SDS011;9498;51.862;19.460;2023-02-18T12:37:36;13.60;;;2.70;;
18738;SDS011;9498;51.862;19.460;2023-02-18T12:40:13;14.23;;;3.33;;
18738;SDS011;9498;51.862;19.460;2023-02-18T12:42:50;8.83;;;2.57;;
18738;SDS011;9498;51.862;19.460;2023-02-18T12:45:27;11.87;;;3.00;;
18738;SDS011;9498;51.862;19.460;2023-02-18T12:48:04;13.60;;;3.40;;
18738;SDS011;9498;51.862;19.460;2023-02-18T12:50:40;10.93;;;3.63;;
18738;SDS011;9498;51.862;19.460;2023-02-18T12:53:14;12.17;;;3.00;;
18738;SDS011;9498;51.862;19.460;2023-02-18T12:55:46;7.57;;;2.33;;
18738;SDS011;9498;51.862;19.460;2023-02-18T12:58:22;11.27;;;2.60;;
18738;SDS011;9498;51.862;19.460;2023-02-18T13:03:46;8.43;;;2.97;;
18738;SDS011;9498;51.862;19.460;2023-02-18T13:08:59;13.80;;;3.20;;
18738;SDS011;9498;51.862;19.460;2023-02-18T13:11:32;11.33;;;2.90;;
18738;SDS011;9498;51.862;19.460;2023-02-18T13:14:03;15.50;;;3.60;;
18738;SDS011;9498;51.862;19.460;2023-02-18T13:16:33;10.43;;;3.83;;
18738;SDS011;9498;51.862;19.460;2023-02-18T13:19:02;11.40;;;3.70;;
18738;SDS011;9498;51.862;19.460;2023-02-18T13:21:31;9.73;;;2.70;;
18738;SDS011;9498;51.862;19.460;2023-02-18T13:23:59;5.10;;;2.40;;
18738;SDS011;9498;51.862;19.460;2023-02-18T13:26:27;14.90;;;2.80;;
18738;SDS011;9498;51.862;19.460;2023-02-18T13:28:57;8.83;;;3.37;;
18738;SDS011;9498;51.862;19.460;2023-02-18T13:31:34;11.43;;;3.30;;
18738;SDS011;9498;51.862;19.460;2023-02-18T13:34:04;9.80;;;2.57;;
18738;SDS011;9498;51.862;19.460;2023-02-18T13:36:40;7.13;;;2.13;;
18738;SDS011;9498;51.862;19.460;2023-02-18T13:39:11;8.77;;;2.83;;
18738;SDS011;9498;51.862;19.460;2023-02-18T13:41:44;9.38;;;3.17;;
18738;SDS011;9498;51.862;19.460;2023-02-18T13:46:55;11.17;;;2.97;;
18738;SDS011;9498;51.862;19.460;2023-02-18T13:49:23;8.17;;;2.70;;
18738;SDS011;9498;51.862;19.460;2023-02-18T13:51:51;8.45;;;2.70;;
18738;SDS011;9498;51.862;19.460;2023-02-18T13:54:23;10.67;;;2.87;;
18738;SDS011;9498;51.862;19.460;2023-02-18T13:56:51;9.90;;;3.00;;
18738;SDS011;9498;51.862;19.460;2023-02-18T13:59:21;5.33;;;2.50;;
18738;SDS011;9498;51.862;19.460;2023-02-18T14:01:50;10.73;;;3.70;;
18738;SDS011;9498;51.862;19.460;2023-02-18T14:04:36;9.27;;;2.90;;
18738;SDS011;9498;51.862;19.460;2023-02-18T14:07:22;7.10;;;2.40;;
18738;SDS011;9498;51.862;19.460;2023-02-18T14:09:51;6.60;;;2.80;;
18738;SDS011;9498;51.862;19.460;2023-02-18T14:12:26;10.63;;;3.05;;
18738;SDS011;9498;51.862;19.460;2023-02-18T14:15:03;10.60;;;3.03;;
18738;SDS011;9498;51.862;19.460;2023-02-18T14:17:34;12.23;;;3.50;;
18738;SDS011;9498;51.862;19.460;2023-02-18T14:26:15;8.30;;;3.47;;
18738;SDS011;9498;51.862;19.460;2023-02-18T14:28:44;8.70;;;3.23;;
18738;SDS011;9498;51.862;19.460;2023-02-18T14:31:26;7.77;;;3.03;;
18738;SDS011;9498;51.862;19.460;2023-02-18T14:34:01;9.77;;;3.43;;
18738;SDS011;9498;51.862;19.460;2023-02-18T14:36:33;11.27;;;3.77;;
18738;SDS011;9498;51.862;19.460;2023-02-18T14:39:05;11.70;;;4.27;;
18738;SDS011;9498;51.862;19.460;2023-02-18T14:41:38;11.30;;;4.50;;
18738;SDS011;9498;51.862;19.460;2023-02-18T14:44:14;10.23;;;4.53;;
18738;SDS011;9498;51.862;19.460;2023-02-18T14:46:47;8.67;;;3.80;;
18738;SDS011;9498;51.862;19.460;2023-02-18T14:49:24;11.70;;;4.57;;
18738;SDS011;9498;51.862;19.460;2023-02-18T14:51:52;9.20;;;4.40;;
18738;SDS011;9498;51.862;19.460;2023-02-18T14:54:22;11.73;;;4.50;;
18738;SDS011;9498;51.862;19.460;2023-02-18T14:56:52;10.97;;;5.13;;
18738;SDS011;9498;51.862;19.460;2023-02-18T14:59:20;10.47;;;4.70;;
18738;SDS011;9498;51.862;19.460;2023-02-18T15:01:48;13.07;;;5.33;;
18738;SDS011;9498;51.862;19.460;2023-02-18T15:04:15;12.70;;;5.30;;
18738;SDS011;9498;51.862;19.460;2023-02-18T15:06:42;14.53;;;5.73;;
18738;SDS011;9498;51.862;19.460;2023-02-18T15:09:14;11.43;;;5.13;;
18738;SDS011;9498;51.862;19.460;2023-02-18T15:11:43;8.30;;;4.00;;
18738;SDS011;9498;51.862;19.460;2023-02-18T15:14:13;8.15;;;3.90;;